createdAt,value
2018-04-23T00:02:17.979Z,40.31
2018-04-23T00:04:57.269Z,41.14
2018-04-23T00:07:36.479Z,40.95
2018-04-23T00:10:14.989Z,40.24
2018-04-23T00:12:54.040Z,38.84
2018-04-23T00:15:32.229Z,40.32
2018-04-23T00:18:10.547Z,41.06
2018-04-23T00:20:49.053Z,41.17
2018-04-23T00:23:27.623Z,41.21
2018-04-23T00:26:08.051Z,40.89
2018-04-23T00:28:48.163Z,41.18
2018-04-23T00:31:27.325Z,41.09
2018-04-23T00:34:07.853Z,40.75
2018-04-23T00:36:46.371Z,40.96
2018-04-23T00:39:24.827Z,41.20
2018-04-23T00:42:04.498Z,40.59
2018-04-23T00:44:42.790Z,40.48
2018-04-23T00:47:21.090Z,40.39
2018-04-23T00:49:59.955Z,40.76
2018-04-23T00:52:38.580Z,39.89
2018-04-23T00:55:17.038Z,40.46
2018-04-23T00:57:55.709Z,40.54
2018-04-23T01:00:34.145Z,39.78
2018-04-23T01:03:13.162Z,40.08
2018-04-23T01:05:52.059Z,39.95
2018-04-23T01:08:30.797Z,40.47
2018-04-23T01:11:09.544Z,40.78
2018-04-23T01:13:47.799Z,40.53
2018-04-23T01:16:26.149Z,40.64
2018-04-23T01:19:05.333Z,40.45
2018-04-23T01:21:43.784Z,40.30
2018-04-23T01:24:21.872Z,40.18
2018-04-23T01:27:01.905Z,40.32
2018-04-23T01:29:40.296Z,39.69
2018-04-23T01:32:19.140Z,40.51
2018-04-23T01:34:58.726Z,40.87
2018-04-23T01:37:37.042Z,40.84
2018-04-23T01:40:15.311Z,40.39
2018-04-23T01:42:54.273Z,40.21
2018-04-23T01:45:33.424Z,40.19
2018-04-23T01:48:11.534Z,39.37
2018-04-23T01:50:50.177Z,39.62
2018-04-23T01:53:28.567Z,39.38
2018-04-23T01:56:07.052Z,39.70
2018-04-23T01:58:45.224Z,40.33
2018-04-23T02:01:24.320Z,40.20
2018-04-23T02:04:02.537Z,40.77
2018-04-23T02:06:42.417Z,40.97
2018-04-23T02:09:21.484Z,40.38
2018-04-23T02:12:00.161Z,40.40
2018-04-23T02:14:39.474Z,39.92
2018-04-23T02:17:22.206Z,39.52
2018-04-23T02:20:00.443Z,39.14
2018-04-23T02:22:39.264Z,39.16
2018-04-23T02:25:17.435Z,38.79
2018-04-23T02:27:56.099Z,39.05
2018-04-23T02:30:34.433Z,39.48
2018-04-23T02:33:12.542Z,39.16
2018-04-23T02:35:50.908Z,39.25
2018-04-23T02:38:29.300Z,38.78
2018-04-23T02:41:07.484Z,37.91
2018-04-23T02:43:46.314Z,38.33
2018-04-23T02:46:25.180Z,38.86
2018-04-23T02:49:04.023Z,38.84
2018-04-23T02:51:42.816Z,38.76
2018-04-23T02:54:21.133Z,38.68
2018-04-23T02:56:59.544Z,38.87
2018-04-23T02:59:38.815Z,39.13
2018-04-23T03:02:17.445Z,39.16
2018-04-23T03:04:55.834Z,39.58
2018-04-23T03:07:33.824Z,39.40
2018-04-23T03:10:12.229Z,39.09
2018-04-23T03:12:50.192Z,38.70
2018-04-23T03:15:29.096Z,38.88
2018-04-23T03:18:07.987Z,39.06
2018-04-23T03:20:46.276Z,38.46
2018-04-23T03:23:24.418Z,38.14
2018-04-23T03:26:03.806Z,38.57
2018-04-23T03:28:42.717Z,38.71
2018-04-23T03:31:20.932Z,38.80
2018-04-23T03:33:59.052Z,37.82
2018-04-23T03:36:38.283Z,38.17
2018-04-23T03:39:16.425Z,38.27
2018-04-23T03:41:55.275Z,38.36
2018-04-23T03:44:33.544Z,38.33
2018-04-23T03:47:12.768Z,38.50
2018-04-23T03:49:52.460Z,38.73
2018-04-23T03:52:35.593Z,38.59
2018-04-23T03:55:13.839Z,38.62
2018-04-23T03:57:55.791Z,38.71
2018-04-23T04:00:34.313Z,38.90
2018-04-23T04:03:17.326Z,39.07
2018-04-23T04:05:56.526Z,38.95
2018-04-23T04:08:35.987Z,39.20
2018-04-23T04:11:15.289Z,39.27
2018-04-23T04:14:10.831Z,39.44
2018-04-23T04:17:05.817Z,39.51
2018-04-23T04:19:44.539Z,39.47
2018-04-23T04:22:22.598Z,39.51
2018-04-23T04:25:02.351Z,39.89
2018-04-23T04:27:40.683Z,39.73
2018-04-23T04:30:19.144Z,39.67
2018-04-23T04:32:57.442Z,39.32
2018-04-23T04:35:36.384Z,39.33
2018-04-23T04:38:15.028Z,38.24
2018-04-23T04:40:54.174Z,37.84
2018-04-23T04:43:32.125Z,38.55
2018-04-23T04:46:10.330Z,39.59
2018-04-23T04:48:49.573Z,40.47
2018-04-23T04:51:28.143Z,40.69
2018-04-23T04:54:06.319Z,40.81
2018-04-23T04:56:44.969Z,40.72
2018-04-23T04:59:23.433Z,40.40
2018-04-23T05:02:02.459Z,40.00
2018-04-23T05:04:43.396Z,40.10
2018-04-23T05:07:24.123Z,40.74
2018-04-23T05:10:02.393Z,40.89
2018-04-23T05:12:44.578Z,40.91
2018-04-23T05:15:23.719Z,40.77
2018-04-23T05:18:03.043Z,40.39
2018-04-23T05:20:42.321Z,40.55
2018-04-23T05:23:22.604Z,40.93
2018-04-23T05:26:01.142Z,40.49
2018-04-23T05:28:43.101Z,41.20
2018-04-23T05:31:23.089Z,41.81
2018-04-23T05:34:03.212Z,41.81
2018-04-23T05:36:45.347Z,41.73
2018-04-23T05:39:25.407Z,41.65
2018-04-23T05:42:07.332Z,42.08
2018-04-23T05:44:46.462Z,41.43
2018-04-23T05:47:27.881Z,41.48
2018-04-23T05:50:05.891Z,40.40
2018-04-23T05:52:44.036Z,39.71
2018-04-23T05:55:25.428Z,40.34
2018-04-23T05:58:08.951Z,41.65
2018-04-23T06:00:47.971Z,42.19
2018-04-23T06:03:29.010Z,42.12
2018-04-23T06:06:09.476Z,42.72
2018-04-23T06:08:47.903Z,43.27
2018-04-23T06:11:31.473Z,43.37
2018-04-23T06:14:18.772Z,43.17
2018-04-23T06:17:04.906Z,43.41
2018-04-23T06:19:45.172Z,42.73
2018-04-23T06:22:28.975Z,43.16
2018-04-23T06:25:10.595Z,43.58
2018-04-23T06:27:51.272Z,43.36
2018-04-23T06:30:31.564Z,43.68
2018-04-23T06:33:11.930Z,43.93
2018-04-23T06:35:57.829Z,44.47
2018-04-23T06:38:41.388Z,44.77
2018-04-23T06:41:20.798Z,43.00
2018-04-23T06:43:59.689Z,42.36
2018-04-23T06:46:40.224Z,43.42
2018-04-23T06:49:18.603Z,43.19
2018-04-23T06:52:02.282Z,44.13
2018-04-23T06:54:43.219Z,41.45
2018-04-23T06:57:22.638Z,43.49
2018-04-23T07:00:03.684Z,43.00
2018-04-23T07:02:42.527Z,43.26
2018-04-23T07:05:26.892Z,44.73
2018-04-23T07:08:13.107Z,44.31
2018-04-23T07:11:00.154Z,44.28
2018-04-23T07:13:41.444Z,44.07
2018-04-23T07:16:22.364Z,42.37
2018-04-23T07:19:00.709Z,43.90
2018-04-23T07:21:40.879Z,43.71
2018-04-23T07:24:20.147Z,43.98
2018-04-23T07:27:01.231Z,43.92
2018-04-23T07:29:40.194Z,44.75
2018-04-23T07:32:20.613Z,42.40
2018-04-23T07:34:59.148Z,44.32
2018-04-23T07:37:40.773Z,43.89
2018-04-23T07:40:20.782Z,44.54
2018-04-23T07:43:05.704Z,43.74
2018-04-23T07:45:43.738Z,44.52
2018-04-23T07:48:22.016Z,45.82
2018-04-23T07:51:03.519Z,43.84
2018-04-23T07:53:42.266Z,44.29
2018-04-23T07:56:26.688Z,43.88
2018-04-23T07:59:04.923Z,44.85
2018-04-23T08:01:44.440Z,45.85
2018-04-23T08:04:24.608Z,46.43
2018-04-23T08:07:02.855Z,46.61
2018-04-23T08:09:44.111Z,45.87
2018-04-23T08:12:23.393Z,42.65
2018-04-23T08:17:49.810Z,45.70
2018-04-23T08:20:28.058Z,44.07
2018-04-23T08:23:06.843Z,44.19
2018-04-23T08:25:45.968Z,44.71
2018-04-23T08:28:27.717Z,43.57
2018-04-23T08:31:07.469Z,43.72
2018-04-23T08:33:46.843Z,44.33
2018-04-23T08:36:28.289Z,44.70
2018-04-23T08:39:08.377Z,45.00
2018-04-23T08:41:47.940Z,43.87
2018-04-23T08:44:29.863Z,45.13
2018-04-23T08:47:08.920Z,45.03
2018-04-23T08:49:47.817Z,44.36
2018-04-23T08:52:30.119Z,44.69
2018-04-23T08:55:08.375Z,44.83
2018-04-23T08:57:48.699Z,44.60
2018-04-23T09:00:28.882Z,44.74
2018-04-23T09:03:11.466Z,44.51
2018-04-23T09:05:50.450Z,45.38
2018-04-23T09:08:31.717Z,45.64
2018-04-23T09:11:10.371Z,45.54
2018-04-23T09:13:50.021Z,44.53
2018-04-23T09:16:31.596Z,44.54
2018-04-23T09:19:10.672Z,45.15
2018-04-23T09:21:53.403Z,44.36
2018-04-23T09:24:31.531Z,44.15
2018-04-23T09:27:10.876Z,44.43
2018-04-23T09:29:52.967Z,44.82
2018-04-23T09:32:33.321Z,44.01
2018-04-23T09:35:12.893Z,44.13
2018-04-23T09:38:01.367Z,43.65
2018-04-23T09:40:39.750Z,44.59
2018-04-23T09:43:17.768Z,44.14
2018-04-23T09:45:57.295Z,43.84
2018-04-23T09:48:35.341Z,45.90
2018-04-23T09:51:15.563Z,44.70
2018-04-23T09:53:55.304Z,44.92
2018-04-23T09:56:38.053Z,45.33
2018-04-23T09:59:16.830Z,46.77
2018-04-23T10:01:57.201Z,46.40
2018-04-23T10:04:37.758Z,45.54
2018-04-23T10:07:16.501Z,44.47
2018-04-23T10:09:58.077Z,44.68
2018-04-23T10:12:36.782Z,44.67
2018-04-23T10:15:16.449Z,45.34
2018-04-23T10:18:00.185Z,44.30
2018-04-23T10:20:38.608Z,45.14
2018-04-23T10:23:17.998Z,45.56
2018-04-23T10:25:59.299Z,44.08
2018-04-23T10:28:38.463Z,45.14
2018-04-23T10:31:20.391Z,44.87
2018-04-23T10:34:00.122Z,44.39
2018-04-23T10:36:43.040Z,42.38
2018-04-23T10:42:13.659Z,43.35
2018-04-23T10:45:04.629Z,43.92
2018-04-23T10:47:42.918Z,45.38
2018-04-23T10:50:23.456Z,45.97
2018-04-23T10:53:02.357Z,46.87
2018-04-23T10:55:43.087Z,46.48
2018-04-23T10:58:28.030Z,44.70
2018-04-23T11:01:07.931Z,43.98
2018-04-23T11:03:48.586Z,43.30
2018-04-23T11:06:27.027Z,43.64
2018-04-23T11:09:06.056Z,43.21
2018-04-23T11:11:52.515Z,43.84
2018-04-23T11:14:30.954Z,45.60
2018-04-23T11:17:22.587Z,44.87
2018-04-23T11:20:05.227Z,45.66
2018-04-23T11:22:47.073Z,43.18
2018-04-23T11:25:26.207Z,44.75
2018-04-23T11:28:05.725Z,44.55
2018-04-23T11:30:46.219Z,44.60
2018-04-23T11:33:25.941Z,44.98
2018-04-23T11:36:08.270Z,44.49
2018-04-23T11:38:46.680Z,44.28
2018-04-23T11:41:31.192Z,44.58
2018-04-23T11:44:25.269Z,45.08
2018-04-23T11:47:11.065Z,43.86
2018-04-23T11:49:49.137Z,43.43
2018-04-23T11:52:33.866Z,44.16
2018-04-23T11:55:18.176Z,44.83
2018-04-23T11:58:08.947Z,44.44
2018-04-23T12:01:06.606Z,45.46
2018-04-23T12:03:52.175Z,44.54
2018-04-23T12:06:32.014Z,43.69
2018-04-23T12:09:16.244Z,44.26
2018-04-23T12:12:00.283Z,45.67
2018-04-23T12:14:54.346Z,45.92
2018-04-23T12:17:34.768Z,47.39
2018-04-23T12:20:14.053Z,47.75
2018-04-23T12:23:00.447Z,47.06
2018-04-23T12:25:39.514Z,45.99
2018-04-23T12:28:17.864Z,45.06
2018-04-23T12:30:57.069Z,44.42
2018-04-23T12:33:35.268Z,44.93
2018-04-23T12:36:15.474Z,43.11
2018-04-23T12:38:54.637Z,44.91
2018-04-23T12:41:33.521Z,44.79
2018-04-23T12:44:15.236Z,44.19
2018-04-23T12:46:56.138Z,45.34
2018-04-23T12:49:36.182Z,45.03
2018-04-23T12:52:15.768Z,46.19
2018-04-23T12:54:55.846Z,46.97
2018-04-23T12:57:36.672Z,46.78
2018-04-23T13:00:26.485Z,47.51
2018-04-23T13:03:05.580Z,44.22
2018-04-23T13:05:52.299Z,45.39
2018-04-23T13:08:34.695Z,47.02
2018-04-23T13:11:16.644Z,46.76
2018-04-23T13:13:55.923Z,46.94
2018-04-23T13:16:34.053Z,45.92
2018-04-23T13:19:13.183Z,45.76
2018-04-23T13:21:53.570Z,45.60
2018-04-23T13:24:32.902Z,45.18
2018-04-23T13:27:19.814Z,46.45
2018-04-23T13:30:12.074Z,46.66
2018-04-23T13:33:00.121Z,46.06
2018-04-23T13:35:44.226Z,45.89
2018-04-23T13:38:24.276Z,43.96
2018-04-23T13:41:06.547Z,43.41
2018-04-23T13:43:44.709Z,44.26
2018-04-23T13:46:26.470Z,40.23
2018-04-23T13:49:05.632Z,39.81
2018-04-23T13:51:45.138Z,39.94
2018-04-23T13:54:28.384Z,39.67
2018-04-23T13:57:08.869Z,-141.58
2018-04-23T13:59:52.479Z,-141.58
2018-04-23T14:02:34.456Z,-141.58
2018-04-23T14:05:16.339Z,-141.58
2018-04-23T14:08:03.759Z,-141.58
2018-04-23T14:10:53.855Z,-141.58
2018-04-23T14:13:43.508Z,-141.58
2018-04-23T14:16:32.671Z,-141.58
2018-04-23T14:19:17.805Z,-141.58
2018-04-23T14:21:59.211Z,-141.58
2018-04-23T14:24:37.316Z,-141.58
2018-04-23T14:27:16.411Z,-141.58
2018-04-23T14:29:55.836Z,-141.58
2018-04-23T14:32:48.867Z,-141.58
2018-04-23T14:38:28.246Z,-141.58
2018-04-23T14:41:10.498Z,-141.58
2018-04-23T14:43:54.274Z,-141.58
2018-04-23T14:46:33.170Z,-141.58
2018-04-23T14:49:17.085Z,-141.58
2018-04-23T14:51:55.871Z,-141.58
2018-04-23T14:54:35.197Z,-141.58
2018-04-23T14:57:13.671Z,-141.58
2018-04-23T14:59:52.868Z,-141.58
2018-04-23T15:02:32.139Z,-141.58
2018-04-23T15:05:24.187Z,-141.58
2018-04-23T15:08:03.072Z,-141.58
2018-04-23T15:10:41.160Z,-141.58
2018-04-23T15:13:19.482Z,-141.58
2018-04-23T15:15:58.288Z,-141.58
2018-04-23T15:18:37.163Z,-141.58
2018-04-23T15:21:16.163Z,-141.58
2018-04-23T15:23:55.645Z,-141.58
2018-04-23T15:26:37.748Z,-141.58
2018-04-23T15:29:19.362Z,-141.58
2018-04-23T15:31:57.553Z,-141.58
2018-04-23T15:34:38.347Z,-141.58
2018-04-23T15:37:17.165Z,-141.58
2018-04-23T15:39:56.887Z,-141.58
2018-04-23T15:42:38.145Z,-141.58
2018-04-23T15:45:16.422Z,-141.58
2018-04-23T15:47:56.144Z,-141.58
2018-04-23T15:50:36.027Z,-141.58
2018-04-23T15:53:14.426Z,-141.58
2018-04-23T15:55:53.471Z,-141.58
2018-04-23T15:58:31.973Z,-141.58
2018-04-23T16:01:11.082Z,-141.58
2018-04-23T16:03:52.407Z,-141.58
2018-04-23T16:06:31.838Z,-141.58
2018-04-23T16:09:09.997Z,-141.58
2018-04-23T16:11:48.939Z,-141.58
2018-04-23T16:14:27.332Z,-141.58
2018-04-23T16:17:06.959Z,-141.58
2018-04-23T16:19:46.315Z,-141.58
2018-04-23T16:22:41.519Z,-141.58
2018-04-23T16:25:29.765Z,-141.58
2018-04-23T16:28:12.550Z,-141.58
2018-04-23T16:30:54.683Z,-141.58
2018-04-23T16:33:34.222Z,-141.58
2018-04-23T16:36:12.582Z,-141.58
2018-04-23T16:38:50.829Z,-141.58
2018-04-23T16:41:30.399Z,-141.58
2018-04-23T16:44:08.473Z,-141.58
2018-04-23T16:46:47.604Z,-141.58
2018-04-23T16:49:28.771Z,-141.58
2018-04-23T16:52:07.131Z,-141.58
2018-04-23T16:54:45.375Z,-141.58
2018-04-23T16:57:28.016Z,-141.58
2018-04-23T17:00:06.484Z,-141.58
2018-04-23T17:02:51.244Z,-141.58
2018-04-23T17:05:29.455Z,-141.58
2018-04-23T17:08:07.885Z,-141.58
2018-04-23T17:10:48.291Z,-141.58
2018-04-23T17:13:26.520Z,-141.58
2018-04-23T17:16:04.659Z,-141.58
2018-04-23T17:18:44.669Z,-141.58
2018-04-23T17:21:22.910Z,-141.58
2018-04-23T17:24:04.059Z,-141.58
2018-04-23T17:26:46.264Z,-141.58
2018-04-23T17:29:27.265Z,-141.58
2018-04-23T17:32:09.248Z,-141.58
2018-04-23T17:34:49.308Z,-141.58
2018-04-23T17:37:32.545Z,-141.58
2018-04-23T17:40:13.417Z,-141.58
2018-04-23T17:42:51.722Z,-141.58
2018-04-23T17:45:35.992Z,-141.58
2018-04-23T17:48:14.396Z,-141.58
2018-04-23T17:50:55.191Z,-141.58
2018-04-23T17:53:55.349Z,-141.58
2018-04-23T17:56:37.341Z,-141.58
2018-04-23T17:59:19.639Z,-141.58
2018-04-23T18:01:58.491Z,-141.58
2018-04-23T18:04:41.265Z,-141.58
2018-04-23T18:07:32.858Z,-141.58
2018-04-23T18:10:18.725Z,-141.58
2018-04-23T18:16:03.714Z,-141.58
2018-04-23T18:51:27.118Z,-141.58
2018-04-23T18:54:05.843Z,-141.58
2018-04-23T18:56:45.035Z,-141.58
2018-04-23T18:59:25.018Z,-141.58
2018-04-23T19:02:03.561Z,-141.58
2018-04-23T19:04:42.790Z,-141.58
2018-04-23T19:07:23.330Z,-141.58
2018-04-23T19:10:03.905Z,-141.58
2018-04-23T19:12:42.845Z,-141.58
2018-04-23T19:15:25.244Z,-141.58
2018-04-23T19:18:04.999Z,-141.58
2018-04-23T19:20:43.337Z,-141.58
2018-04-23T19:23:26.077Z,-141.58
2018-04-23T19:26:04.947Z,-141.58
2018-04-23T19:28:44.713Z,-141.58
2018-04-23T19:31:28.220Z,-141.58
2018-04-23T19:34:06.435Z,-141.58
2018-04-23T19:36:44.695Z,-141.58
2018-04-23T19:39:27.806Z,-141.58
2018-04-23T19:42:06.137Z,-141.58
2018-04-23T19:44:47.696Z,-141.58
2018-04-23T19:47:26.870Z,-141.58
2018-04-23T19:50:09.254Z,-141.58
2018-04-23T19:52:47.770Z,-141.58
2018-04-23T19:55:27.774Z,-141.58
2018-04-23T19:58:10.754Z,-141.58
2018-04-23T20:00:49.880Z,-141.58
2018-04-23T20:03:29.418Z,-141.58
2018-04-23T20:06:11.715Z,-141.58
2018-04-23T20:08:50.156Z,-141.58
2018-04-23T20:11:30.114Z,-141.58
2018-04-23T20:14:12.550Z,-141.58
2018-04-23T20:16:51.021Z,-141.58
2018-04-23T20:19:31.307Z,-141.58
2018-04-23T20:22:11.663Z,-141.58
2018-04-23T20:24:51.696Z,-141.58
2018-04-23T20:27:30.058Z,-141.58
2018-04-23T20:30:09.303Z,-141.58
2018-04-23T20:32:51.429Z,-141.58
2018-04-23T20:35:29.771Z,-141.58
2018-04-23T20:38:08.442Z,-141.58
2018-04-23T20:40:46.827Z,-141.58
2018-04-23T20:43:25.316Z,-141.58
2018-04-23T20:46:03.457Z,-141.58
2018-04-23T20:48:42.515Z,-141.58
2018-04-23T20:51:21.717Z,-141.58
2018-04-23T20:54:00.317Z,-141.58
2018-04-23T20:56:39.609Z,-141.58
2018-04-23T20:59:18.725Z,-141.58
2018-04-23T21:01:58.955Z,-141.58
2018-04-23T21:04:37.752Z,-141.58
2018-04-23T21:07:16.662Z,-141.58
2018-04-23T21:10:00.753Z,-141.58
2018-04-23T21:12:39.141Z,-141.58
2018-04-23T21:15:17.522Z,-141.58
2018-04-23T21:18:00.717Z,-141.58
2018-04-23T21:20:41.316Z,-141.58
2018-04-23T21:23:19.754Z,-141.58
2018-04-23T21:25:58.930Z,-141.58
2018-04-23T21:28:40.308Z,-141.58
2018-04-23T21:31:20.627Z,-141.58
2018-04-23T21:34:00.588Z,-141.58
2018-04-23T21:36:39.527Z,-141.58
2018-04-23T21:39:20.471Z,-141.58
2018-04-23T21:41:59.555Z,-141.58
2018-04-23T21:44:37.875Z,-141.58
2018-04-23T21:47:21.187Z,-141.58
2018-04-23T21:49:59.536Z,-141.58
2018-04-23T21:52:38.141Z,-141.58
2018-04-23T21:55:17.353Z,-141.58
2018-04-23T21:57:57.502Z,-141.58
2018-04-23T22:00:36.573Z,-141.58
2018-04-23T22:03:15.435Z,-141.58
2018-04-23T22:05:56.484Z,-141.58
2018-04-23T22:08:35.761Z,-141.58
2018-04-23T22:11:14.656Z,-141.58
2018-04-23T22:13:53.108Z,-141.58
2018-04-23T22:16:32.251Z,-141.58
2018-04-23T22:19:12.768Z,-141.58
2018-04-23T22:21:51.856Z,-141.58
2018-04-23T22:24:30.030Z,-141.58
2018-04-23T22:27:08.497Z,-141.58
2018-04-23T22:29:47.615Z,-141.58
2018-04-23T22:32:27.241Z,-141.58
2018-04-23T22:35:09.836Z,-141.58
2018-04-23T22:37:49.993Z,-141.58
2018-04-23T22:40:28.585Z,-141.58
2018-04-23T22:43:09.857Z,-141.58
2018-04-23T22:45:48.469Z,-141.58
2018-04-23T22:48:27.818Z,-141.58
2018-04-23T22:51:10.169Z,-141.58
2018-04-23T22:53:48.526Z,-141.58
2018-04-23T22:56:26.907Z,-141.58
2018-04-23T22:59:06.698Z,-141.58
2018-04-23T23:01:45.461Z,-141.58
2018-04-23T23:04:23.844Z,-141.58
2018-04-23T23:07:03.138Z,-141.58
2018-04-23T23:09:41.974Z,-141.58
2018-04-23T23:12:21.415Z,-141.58
2018-04-23T23:14:59.693Z,-141.58
2018-04-23T23:17:39.629Z,-141.58
2018-04-23T23:20:18.265Z,-141.58
2018-04-23T23:22:56.302Z,-141.58
2018-04-23T23:25:37.231Z,-141.58
2018-04-23T23:28:16.341Z,-141.58
2018-04-23T23:30:55.530Z,-141.58
2018-04-23T23:33:36.067Z,-141.58
2018-04-23T23:36:14.724Z,-141.58
2018-04-23T23:38:52.833Z,-141.58
2018-04-23T23:41:36.057Z,-141.58
2018-04-23T23:44:14.540Z,-141.58
2018-04-23T23:46:53.936Z,-141.58
2018-04-23T23:49:35.030Z,-141.58
2018-04-23T23:52:13.503Z,-141.58
2018-04-23T23:54:53.507Z,-141.58
2018-04-23T23:57:34.132Z,-141.58
